Sao Paulo, Brazil
Current Conditions -  °F | °C
As of 11:00 PM on Friday 28 Nov 2014 (Local Time) from SBMT Reporting Station
Drizzle Drizzle  
Wind Chill: 66°   Ceiling: 1200
Heat Index: 66°   Visibility: 1.8mi
Dew Point: 61°   Wind: 13mph
Humidity: 83%   Direction: 140°SE
Pressure: 30.12"   Gusts: NA
Location:  23.53°S, 46.63°W
Report Text: SBMT 290100Z 14011KT 3000 -DZ BR SCT009 BKN012 19/16 Q1020
Loading
Personal Weather Stations






























Interactive Weather Map New forecast layout! Learn more

10-Day Weather Forecast

Advertisements
Track Severe Weather on mobile